Central Sierra Snow Lab
 (DRI) 6883 ft         Display wind rose
     Date    Time     Temp MxTp MnTp DewP  RH Spd Dir Gst PcpAc SnoHt   SWE
2021 Sep 19 07:50 pm    46   57   42   35  65   2  26   4  0.14     -  1.10
2021 Sep 19 07:30 pm    48   57   42   35  61   2  16   4  0.14     -  1.10
2021 Sep 19 07:10 pm    50   57   42   35  56   1  22   2     -     -  1.09
2021 Sep 19 06:50 pm    53   57   42   33  47   0   -   0  0.14     -  1.08
2021 Sep 19 06:30 pm    54   57   42   31  42   2 295   3  0.14     -  1.07
2021 Sep 19 05:40 pm    56   57   42   32  40   2 193   7     -     -  1.02
2021 Sep 19 05:30 pm    56   57   42   32  40   2 243   5  0.13     -  1.00
2021 Sep 19 05:10 pm    56   58   42   31  37   3 218   6  0.13     -  0.93
2021 Sep 19 04:50 pm    57   58   42   31  38   2 218   5     -     -  0.90
2021 Sep 19 04:30 pm    56   58   42   31  38   3 245   7     -     -  0.90
2021 Sep 19 04:10 pm    55   60   42   31  40   3 255   7  0.13     -  0.87
2021 Sep 19 03:50 pm    56   60   42   30  36   3 209   8     - 130.2  0.84
2021 Sep 19 03:30 pm    56   61   42   29  36   3 202   6  0.15     -  0.82
2021 Sep 19 03:10 pm    55   61   42   30  39   4 203  10  0.14 138.9  0.81
2021 Sep 19 02:50 pm    55   61   42   32  41   3 200   9  0.15     -  0.79
2021 Sep 19 02:30 pm    54   61   42   32  42   3 231   8  0.14     -  0.78
2021 Sep 19 02:10 pm    54   61   42   31  42   3 218   8  0.14     -  0.76
2021 Sep 19 01:50 pm    54   61   42   32  44   3 232   5  0.15     -  0.74
2021 Sep 19 01:30 pm    53   61   42   32  45   4 184  10  0.14     -  0.73
2021 Sep 19 01:10 pm    52   61   42   34  50   4 201  10  0.15     -  0.72
2021 Sep 19 12:50 pm    52   61   42   34  50   4 205  10  0.15     -  0.71
2021 Sep 19 12:30 pm    51   61   42   34  52   4 200   8  0.15     -  0.71
2021 Sep 19 12:10 pm    51   61   42   36  57   3 210   8  0.14     -  0.73
2021 Sep 19 11:50 am    50   61   42   36  60   4 220   8  0.15     -  0.74
2021 Sep 19 11:30 am    48   61   42   37  66   4 200   9  0.15     -  0.82
2021 Sep 19 11:10 am    47   61   42   38  71   4 197   8  0.15     -  0.82
2021 Sep 19 10:50 am    47   61   42   39  73   4 216  15  0.14     -  0.91
2021 Sep 19 10:30 am    46   61   42   39  75   3 219   8  0.15     -  0.90
2021 Sep 19 10:10 am    46   61   42   40  79   3 231   7  0.14     -  0.96
2021 Sep 19 09:50 am    44   61   42   40  85   3 208   6  0.15 108.1  1.01
2021 Sep 19 09:20 am    43   61   42   39  88   4 220  11     -   0.0  1.04
2021 Sep 19 09:10 am    43   61   42   39  88   4 205  10  0.16   0.0  1.05
2021 Sep 19 08:40 am    42   61   42   39  91   3 210   8     -   0.0  1.08
2021 Sep 19 08:20 am    42   61   42   39  90   4 220   9     -   0.0  1.08
2021 Sep 19 08:10 am    42   61   42   39  91   4 224  12  0.14   0.0  1.09
2021 Sep 19 07:50 am    42   61   42   39  91   4 214  12  0.13   0.0  1.10
2021 Sep 19 07:30 am    42   61   42   40  92   4 240  10  0.13   0.0  1.10
2021 Sep 19 07:10 am    42   61   42   40  92   5 247  12  0.14   0.0  1.10
2021 Sep 19 06:50 am    42   61   42   41  94   4 223  12  0.15   0.0  1.10
2021 Sep 19 06:30 am    43   61   43   41  94   5 213  16  0.14   0.0  1.10
2021 Sep 19 06:10 am    43   61   43   42  94   5 211  15  0.14   0.0  1.10
2021 Sep 19 05:50 am    44   61   44   42  94   6 226  18  0.13   0.0  1.09
2021 Sep 19 05:30 am    44   61   44   43  94   6 219  18  0.12   0.0  1.09
2021 Sep 19 04:50 am    45   61   45   44  94   5 206  13     -   0.0  1.09
2021 Sep 19 04:30 am    45   61   45   44  95   6 230  19  0.13  12.6  1.09
2021 Sep 19 04:10 am    46   61   45   44  95   6 228  15  0.10   0.0  1.09
2021 Sep 19 03:40 am    45   61   45   44  95   5 220  13  0.09   0.0  1.09
2021 Sep 19 03:30 am    45   61   45   44  95   4 214   7  0.10   0.0  1.09
2021 Sep 19 03:10 am    45   61   45   44  95   5 220  12  0.08   0.0  1.09
2021 Sep 19 02:50 am    45   61   45   44  96   4 212  11  0.07   0.0  1.10
2021 Sep 19 02:30 am    45   61   45   44  96   5 225  11  0.04   0.0  1.09
2021 Sep 19 02:10 am    45   61   45   44  96   4 211   8  0.02   0.0  1.09
2021 Sep 19 01:50 am    45   61   45   43  95   4 214  14  0.02   0.0  1.09
2021 Sep 19 01:30 am    45   61   45   43  95   6 213  23  0.02   0.0  1.10
2021 Sep 19 01:10 am    45   61   45   43  93   5 212  19  0.02   0.0  1.10
2021 Sep 19 12:50 am    45   61   45   43  93   5 209  12  0.01   0.0  1.10
2021 Sep 19 12:30 am    45   61   45   43  93   4 230  10  0.00   0.0  1.10
2021 Sep 19 12:10 am    45   61   45   43  91   4 223  11  0.00   0.0  1.10
2021 Sep 18 11:50 pm    46   61   46   42  88   3 220   8  0.00   0.0  1.10
2021 Sep 18 11:30 pm    46   61   46   42  85   4 220   7  0.01   0.0  1.10
2021 Sep 18 10:40 pm    47   61   47   38  71   4 228  10     -     -  1.10
2021 Sep 18 10:30 pm    47   61   47   37  67   4 213   8     -     -  1.10
2021 Sep 18 10:10 pm    48   61   48   32  53   4 213   8  0.00     -  1.08
2021 Sep 18 09:50 pm    49   61   48   27  42   4 219  15  0.01     -  1.08
2021 Sep 18 09:30 pm    49   61   48   20  31   4 210   8     -     -  1.08
2021 Sep 18 09:10 pm    49   61   48   17  28   4 217  11  0.00     -  1.08
2021 Sep 18 08:50 pm    48   61   48   23  36   4 218  10     -     -  1.09
2021 Sep 18 08:30 pm    48   61   48   23  37   4 224  10  0.01     -  1.09
2021 Sep 18 08:10 pm    49   61   48   23  36   3 211  10  0.02     -  1.09
2021 Sep 18 07:50 pm    49   61   48   24  37   4 212   9  0.01     -  1.09
2021 Sep 18 07:00 pm    51   61   48   24  35   4 216   9  0.01     -  1.09
2021 Sep 18 06:50 pm    52   61   48   23  33   4 219  10  0.00     -  1.08
2021 Sep 18 06:30 pm    52   62   48   23  32   5 226  15  0.01     -  1.08
2021 Sep 18 06:10 pm    54   63   48   22  29   4 210  13  0.01     -  1.08
2021 Sep 18 05:50 pm    55   65   48   22  28   5 225  13  0.01     -  1.07
2021 Sep 18 05:30 pm    56   65   48   22  27   6 235  16  0.01     -  1.03
2021 Sep 18 05:10 pm    58   66   48   22  24   5 221  12  0.01  53.5  0.95
2021 Sep 18 04:20 pm    60   67   48   18  19   4 223  11     -  21.0  0.91
2021 Sep 18 04:10 pm    59   68   48   18  19   4 215  10  0.01  10.4  0.90
2021 Sep 18 03:30 pm    61   68   48   19  20   5 226  21  0.01   0.0  0.85
2021 Sep 18 03:10 pm    60   68   48   20  21   5 210  12  0.01   0.0  0.86
2021 Sep 18 02:50 pm    59   69   48   21  22   6 245  21  0.01   0.0  0.85
2021 Sep 18 02:30 pm    60   69   48   24  25   5 225  14  0.03   0.0  0.82
2021 Sep 18 02:10 pm    61   69   48   25  25   4 234  15  0.01   0.0  0.79
2021 Sep 18 01:50 pm    61   71   48   25  26   4 212  12  0.00   0.0  0.80
2021 Sep 18 01:30 pm    60   71   48   26  26   7 193  17  0.01   0.0  0.79
2021 Sep 18 01:10 pm    61   71   48   25  25   5 216  16  0.00   0.0  0.78
2021 Sep 18 12:50 pm    60   71   48   25  25   6 199  13  0.01   0.0  0.77
2021 Sep 18 12:30 pm    61   71   48   26  26   5 228  13  0.01   0.0  0.75
2021 Sep 18 11:50 am    61   71   48   23  23   5 216  11  0.00   0.0  0.75
2021 Sep 18 11:30 am    60   71   48   22  23   5 208  11  0.01   0.0  0.76
2021 Sep 18 11:10 am    59   71   48   23  25   6 196  17  0.01  16.2  0.77
2021 Sep 18 10:50 am    58   71   48   24  27   6 200  13  0.01 112.0  0.80
2021 Sep 18 10:30 am    57   71   48   24  28   4 206   8  0.01   0.0  0.88
2021 Sep 18 10:10 am    55   71   48   24  29   5 209  12  0.01  82.0  0.99
2021 Sep 18 09:50 am    54   71   48   26  33   4 220   9  0.01     -  0.99
2021 Sep 18 09:10 am    52   71   48   33  47   3 226  11     -     -  1.03
2021 Sep 18 08:30 am    51   71   48   35  54   4 209   7     -     -  1.06
2021 Sep 18 08:10 am    50   71   46   35  57   4 218   9     -     -  1.06
2021 Sep 18 07:50 am    49   71   44   36  60   4 215   7  0.01     -  1.07
2021 Sep 18 07:30 am    49   71   44   36  60   3 222   7  0.01     -  1.07
2021 Sep 18 07:10 am    48   71   44   35  60   3 225   8  0.00  28.9  1.08
2021 Sep 18 06:50 am    49   71   43   36  61   3 219   5     -  72.9  1.08
2021 Sep 18 06:30 am    49   71   43   36  60   3 216   8  0.01     -  1.08
2021 Sep 18 05:50 am    49   71   43   35  57   3 215  12  0.00     -  1.08
2021 Sep 18 05:30 am    49   71   43   35  58   2 224   5  0.01     -  1.08
2021 Sep 18 05:10 am    49   71   43   34  57   3 215   8  0.01     -  1.08
2021 Sep 18 04:40 am    49   71   43   34  55   3 202   5     -     -  1.08
2021 Sep 18 04:30 am    49   71   43   34  55   3 210   6  0.00     -  1.08
2021 Sep 18 04:10 am    50   71   43   33  53   3 216  10  0.01     -  1.08
2021 Sep 18 03:40 am    50   71   43   32  49   2 204   5     -     -  1.08
2021 Sep 18 03:30 am    50   71   43   32  49   2 219   7  0.00     -  1.08
2021 Sep 18 03:10 am    50   71   43   32  49   2 237   6  0.00     -  1.09
2021 Sep 18 02:50 am    50   71   43   32  50   2 224   7  0.00     -  1.08
2021 Sep 18 02:30 am    50   71   43   32  50   2 222   4  0.01     -  1.08
2021 Sep 18 02:10 am    50   71   43   33  52   3 226   6  0.01     -  1.09
2021 Sep 18 01:50 am    50   71   43   34  55   2 227   3  0.01     -  1.09
2021 Sep 18 01:30 am    49   71   43   34  55   2 206   4  0.01     -  1.09
2021 Sep 18 01:10 am    49   71   43   34  55   2 195   3  0.00     -  1.09
2021 Sep 18 12:50 am    49   71   43   35  58   1 165   3  0.00     -  1.09
2021 Sep 18 12:30 am    48   71   43   35  60   1 189   6  0.02     -  1.09
2021 Sep 18 12:10 am    49   71   43   35  59   0 225   1  0.01     -  1.09
2021 Sep 17 11:50 pm    50   71   43   35  57   0   -   0  0.01     -  1.09
2021 Sep 17 11:30 pm    50   71   43   35  57   1 224   3  0.00     -  1.09
2021 Sep 17 10:30 pm    49   71   43   34  56   2  45   3  0.01     -  1.09
2021 Sep 17 10:10 pm    49   71   43   34  55   1  31   2  0.01     -  1.09
2021 Sep 17 09:50 pm    51   71   43   34  53   1  41   2  0.00     -  1.09
2021 Sep 17 09:30 pm    51   71   43   34  52   0  88   2  0.02     -  1.09
2021 Sep 17 09:10 pm    52   71   43   34  49   1 193   2  0.02     -  1.09
2021 Sep 17 08:50 pm    54   71   43   34  47   1 227   3  0.02     -  1.09
2021 Sep 17 08:30 pm    55   71   43   34  45   2 218   7  0.01     -  1.09
2021 Sep 17 08:10 pm    56   71   43   33  42   2 209   4  0.00     -  1.09
2021 Sep 17 07:50 pm    56   71   43   32  40   3 216   6  0.00     -  1.08
2021 Sep 17 07:30 pm    57   71   43   32  38   3 204   7  0.00     -  1.08
2021 Sep 17 07:10 pm    59   71   43   32  36   2 216   7     -     -  1.07